Terminal Aerodrome Forecast
Issued by NWS

Home | Current Version | Previous Version | Text Only | Print | Product List | Glossary On
Versions: 1 2 3 4 5 6 7 8 9 10 11 12 13 14 15 16 17 18 19 20 21 22 23 24 25 26 27 28 29 30 31 32 33
177
FTUS46 KPQR 290712 AAB
TAFONP
TAF AMD
KONP 290712Z 2907/3006 29005KT P6SM SCT025 OVC035
      TEMPO 2907/2910 BKN025 OVC035
     FM291700 32010KT P6SM SCT020 BKN040
     FM292100 34012KT P6SM SCT040=

USA.gov is the U.S. government's official web portal to all federal, state and local government web resources and services.